Time;durP1;ratioP1;P1;durP2;ratioP2;P2;SDS_P1;SDS_P2;PMS_P1;PMS_P2;Temp;Humidity;BMP_temperature;BMP_pressure;BME280_temperature;BME280_humidity;BME280_pressure;Samples;Min_cycle;Max_cycle;Signal;HPM_P1;HPM_P2
2020/12/07 00:01:25;;;;;;;74.20;39.13;;;4.00;99.90;;;;;;5031870;28;36406;-76
2020/12/07 00:03:51;;;;;;;47.10;29.77;;;4.00;99.90;;;;;;5021988;28;38884;-76
2020/12/07 00:06:18;;;;;;;54.03;31.10;;;4.00;99.90;;;;;;5033964;28;37679;-76
2020/12/07 00:08:45;;;;;;;46.13;29.90;;;4.00;99.90;;;;;;5015961;28;38718;-76
2020/12/07 00:11:15;;;;;;;40.37;26.33;;;4.00;99.90;;;;;;5023763;28;36673;-76
2020/12/07 00:13:41;;;;;;;35.07;24.67;;;4.00;99.90;;;;;;5019359;28;39631;-76
2020/12/07 00:16:11;;;;;;;54.33;32.20;;;4.10;99.90;;;;;;5024501;28;38017;-76
2020/12/07 00:18:37;;;;;;;44.57;27.57;;;4.10;99.90;;;;;;5022122;28;37058;-76
2020/12/07 00:21:08;;;;;;;59.00;33.63;;;4.20;99.90;;;;;;5013905;28;37936;-76
2020/12/07 00:23:34;;;;;;;47.13;29.57;;;4.20;99.90;;;;;;5020616;28;39640;-75
2020/12/07 00:26:01;;;;;;;50.50;31.83;;;4.20;99.90;;;;;;5021469;28;38898;-76
2020/12/07 00:28:27;;;;;;;45.37;29.07;;;4.30;99.90;;;;;;5022318;28;48194;-76
2020/12/07 00:30:53;;;;;;;42.77;28.37;;;4.30;99.90;;;;;;5024565;28;37198;-76
2020/12/07 00:33:19;;;;;;;42.03;28.37;;;4.30;99.90;;;;;;5013245;28;39172;-76
2020/12/07 00:35:45;;;;;;;43.13;27.50;;;4.40;99.90;;;;;;5037719;28;37080;-76
2020/12/07 00:38:11;;;;;;;40.07;25.97;;;4.40;99.90;;;;;;5026274;28;37481;-76
2020/12/07 00:40:37;;;;;;;41.23;27.97;;;4.40;99.90;;;;;;5028477;28;36392;-76
2020/12/07 00:43:03;;;;;;;36.60;23.83;;;4.50;99.90;;;;;;5046169;28;38846;-75
2020/12/07 00:45:29;;;;;;;38.03;25.23;;;4.50;99.90;;;;;;4999269;28;37606;-75
2020/12/07 00:47:55;;;;;;;39.10;25.67;;;4.50;99.90;;;;;;5017943;28;38065;-76
2020/12/07 00:50:21;;;;;;;33.27;21.67;;;4.50;99.90;;;;;;5017109;28;37176;-76
2020/12/07 00:52:47;;;;;;;38.53;25.40;;;4.50;99.90;;;;;;5049138;28;38674;-76
2020/12/07 00:55:14;;;;;;;34.30;24.07;;;4.50;99.90;;;;;;5023224;28;38040;-76
2020/12/07 00:57:40;;;;;;;29.80;20.97;;;4.60;99.90;;;;;;5037863;28;38022;-76
2020/12/07 01:00:07;;;;;;;33.53;22.43;;;4.60;99.90;;;;;;5030752;28;39621;-76
2020/12/07 01:02:34;;;;;;;31.77;21.73;;;4.60;99.90;;;;;;5017268;28;38369;-75
2020/12/07 01:05:01;;;;;;;27.37;19.60;;;4.70;99.90;;;;;;5020233;28;38473;-76
2020/12/07 01:07:27;;;;;;;32.43;21.47;;;4.70;99.90;;;;;;5036561;28;34941;-76
2020/12/07 01:09:53;;;;;;;32.73;22.00;;;4.80;99.90;;;;;;5026148;28;37394;-75
2020/12/07 01:12:19;;;;;;;30.07;19.80;;;4.80;99.90;;;;;;5024478;28;39623;-76
2020/12/07 01:14:46;;;;;;;32.20;21.50;;;4.80;99.90;;;;;;5011903;28;38076;-76
2020/12/07 01:17:12;;;;;;;34.73;21.20;;;4.90;99.90;;;;;;5022647;28;38196;-76
2020/12/07 01:19:38;;;;;;;31.13;21.00;;;4.90;99.90;;;;;;5022330;28;36562;-75
2020/12/07 01:22:04;;;;;;;34.20;21.83;;;4.90;99.90;;;;;;5018807;28;38755;-77
2020/12/07 01:24:31;;;;;;;34.53;22.77;;;5.00;99.90;;;;;;5018656;28;38923;-75
2020/12/07 01:26:57;;;;;;;34.27;23.17;;;4.90;99.90;;;;;;5021542;28;37452;-76
2020/12/07 01:29:23;;;;;;;32.43;21.80;;;5.00;99.90;;;;;;5022612;28;37356;-75
2020/12/07 01:31:49;;;;;;;41.33;24.93;;;5.00;99.90;;;;;;5017899;28;38788;-76
2020/12/07 01:34:15;;;;;;;41.03;25.57;;;5.00;99.90;;;;;;5042802;28;36907;-76
2020/12/07 01:36:41;;;;;;;39.57;27.00;;;5.00;99.90;;;;;;5024329;28;39113;-76
2020/12/07 01:39:07;;;;;;;38.53;23.83;;;5.00;99.90;;;;;;5017457;28;37015;-76
2020/12/07 01:41:33;;;;;;;35.37;24.33;;;5.00;99.90;;;;;;5005149;28;38556;-75
2020/12/07 01:43:59;;;;;;;44.20;27.20;;;5.00;99.90;;;;;;5026201;28;38041;-76
2020/12/07 01:46:25;;;;;;;35.40;23.30;;;5.00;99.90;;;;;;4998334;28;38003;-75
2020/12/07 01:48:55;;;;;;;36.37;23.47;;;5.00;99.90;;;;;;5006688;28;37102;-76
2020/12/07 01:51:22;;;;;;;37.63;24.33;;;5.00;99.90;;;;;;5017651;28;39346;-76
2020/12/07 01:53:49;;;;;;;33.60;23.07;;;5.00;99.90;;;;;;5021107;28;38987;-76
2020/12/07 01:56:25;;;;;;;41.60;26.13;;;5.00;99.90;;;;;;5025505;28;37833;-75
2020/12/07 01:58:51;;;;;;;38.93;24.83;;;5.10;99.90;;;;;;5026177;28;36605;-75
2020/12/07 02:01:17;;;;;;;34.37;23.13;;;5.00;99.90;;;;;;5002267;28;37509;-76
2020/12/07 02:03:44;;;;;;;31.70;21.63;;;5.10;99.90;;;;;;5006262;28;38262;-76
2020/12/07 02:06:10;;;;;;;37.77;23.60;;;5.00;99.90;;;;;;5002554;28;38468;-75
2020/12/07 02:08:36;;;;;;;37.70;23.27;;;5.10;99.90;;;;;;5006686;28;37267;-76
2020/12/07 02:11:02;;;;;;;38.23;24.03;;;5.10;99.90;;;;;;5007642;28;39527;-76
2020/12/07 02:13:30;;;;;;;34.17;22.20;;;5.10;99.90;;;;;;5007802;28;38748;-75
2020/12/07 02:15:56;;;;;;;29.20;19.93;;;5.10;99.90;;;;;;5005759;28;38338;-75
2020/12/07 02:18:22;;;;;;;34.33;22.97;;;5.10;99.90;;;;;;5016721;28;37009;-75
2020/12/07 02:20:49;;;;;;;31.97;21.57;;;5.10;99.90;;;;;;5017754;28;37381;-75
2020/12/07 02:23:15;;;;;;;30.80;21.50;;;5.20;99.90;;;;;;5008992;28;38002;-74
2020/12/07 02:25:42;;;;;;;35.03;22.33;;;5.20;99.90;;;;;;5005473;28;38965;-75
2020/12/07 02:28:08;;;;;;;38.67;25.10;;;5.20;99.90;;;;;;5024642;28;37260;-75
2020/12/07 02:30:34;;;;;;;36.27;25.07;;;5.20;99.90;;;;;;5018287;28;37830;-74
2020/12/07 02:33:00;;;;;;;35.30;24.60;;;5.20;99.90;;;;;;5003596;28;37830;-75
2020/12/07 02:35:26;;;;;;;42.00;26.60;;;5.20;99.90;;;;;;5018095;28;38232;-75
2020/12/07 02:37:52;;;;;;;41.07;26.00;;;5.20;99.90;;;;;;5010861;28;36496;-75
2020/12/07 02:40:19;;;;;;;38.73;25.10;;;5.20;99.90;;;;;;5007442;28;39169;-74
2020/12/07 02:42:45;;;;;;;45.47;26.60;;;5.20;99.90;;;;;;5006538;28;38582;-75
2020/12/07 02:45:13;;;;;;;44.30;27.87;;;5.20;99.90;;;;;;5007281;28;38200;-74
2020/12/07 02:47:40;;;;;;;41.23;26.67;;;5.20;99.90;;;;;;5014763;28;37440;-75
2020/12/07 02:50:08;;;;;;;48.50;30.17;;;5.20;99.90;;;;;;5003793;28;39908;-75
2020/12/07 02:52:34;;;;;;;44.53;28.80;;;5.30;99.90;;;;;;4999925;28;38677;-74
2020/12/07 02:55:11;;;;;;;51.50;31.30;;;5.30;99.90;;;;;;5008868;28;37917;-74
2020/12/07 02:57:38;;;;;;;42.43;25.70;;;5.30;99.90;;;;;;5002848;28;48133;-74
2020/12/07 03:00:06;;;;;;;54.77;32.97;;;5.30;99.90;;;;;;5005315;28;38450;-74
2020/12/07 03:02:34;;;;;;;47.57;29.67;;;5.30;99.90;;;;;;5000783;28;38434;-74
2020/12/07 03:05:02;;;;;;;50.83;32.33;;;5.30;99.90;;;;;;5004903;28;37547;-74
2020/12/07 03:07:28;;;;;;;44.17;28.50;;;5.30;99.90;;;;;;5019915;28;47100;-74
2020/12/07 03:09:54;;;;;;;40.27;26.00;;;5.30;99.90;;;;;;5009908;28;39225;-74
2020/12/07 03:12:20;;;;;;;51.83;30.63;;;5.30;99.90;;;;;;5005420;28;38195;-74
2020/12/07 03:14:46;;;;;;;37.90;25.37;;;5.30;99.90;;;;;;5000483;28;38258;-75
2020/12/07 03:17:13;;;;;;;48.37;29.50;;;5.20;99.90;;;;;;5004199;28;37445;-75
2020/12/07 03:19:39;;;;;;;37.87;25.30;;;5.20;99.90;;;;;;5008161;28;37781;-74
2020/12/07 03:22:05;;;;;;;39.07;26.77;;;5.20;99.90;;;;;;5004432;28;37530;-74
2020/12/07 03:24:31;;;;;;;36.70;26.30;;;5.20;99.90;;;;;;5019335;28;37409;-74
2020/12/07 03:26:57;;;;;;;44.23;27.60;;;5.20;99.90;;;;;;4994766;28;37267;-74
2020/12/07 03:29:23;;;;;;;46.27;30.30;;;5.20;99.90;;;;;;5000108;28;37916;-74
2020/12/07 03:31:49;;;;;;;44.07;29.33;;;5.20;99.90;;;;;;5002444;28;39348;-74
2020/12/07 03:34:15;;;;;;;44.80;30.03;;;5.20;99.90;;;;;;4996096;28;37835;-74
2020/12/07 03:36:42;;;;;;;41.43;27.70;;;5.20;99.90;;;;;;5015034;28;37144;-74
2020/12/07 03:39:08;;;;;;;67.63;38.00;;;5.20;99.90;;;;;;5007475;28;38162;-74
2020/12/07 03:41:34;;;;;;;39.57;26.77;;;5.20;99.90;;;;;;5012464;28;37536;-74
2020/12/07 03:44:00;;;;;;;45.67;31.43;;;5.20;99.90;;;;;;4995493;28;36584;-74
2020/12/07 03:46:27;;;;;;;46.57;28.67;;;5.20;99.90;;;;;;4996037;28;38424;-75
2020/12/07 03:48:53;;;;;;;41.23;28.00;;;5.20;99.90;;;;;;5002302;28;39298;-74
2020/12/07 03:51:19;;;;;;;47.60;31.80;;;5.20;99.90;;;;;;4998770;28;38677;-74
2020/12/07 03:53:45;;;;;;;54.57;32.83;;;5.20;99.90;;;;;;5003017;28;38182;-74
2020/12/07 03:56:12;;;;;;;56.20;33.30;;;5.20;99.90;;;;;;4998149;28;37594;-74
2020/12/07 03:58:38;;;;;;;50.57;30.90;;;5.30;99.90;;;;;;4993378;28;38530;-74
2020/12/07 04:01:05;;;;;;;53.40;30.60;;;5.30;99.90;;;;;;5011737;28;37759;-74
2020/12/07 04:03:32;;;;;;;48.37;29.93;;;5.30;99.90;;;;;;5000280;28;38010;-74
2020/12/07 04:06:07;;;;;;;50.63;29.87;;;5.30;99.90;;;;;;4998926;28;37335;-74
2020/12/07 04:08:33;;;;;;;46.03;29.40;;;5.40;99.90;;;;;;5002110;28;47241;-74
2020/12/07 04:10:59;;;;;;;67.47;36.50;;;5.40;99.90;;;;;;5016057;28;37596;-74
2020/12/07 04:13:25;;;;;;;76.27;39.57;;;5.40;99.90;;;;;;5021387;28;35758;-75
2020/12/07 04:15:51;;;;;;;77.67;39.93;;;5.40;99.90;;;;;;5049199;28;34557;-74
2020/12/07 04:18:17;;;;;;;69.27;38.60;;;5.40;99.90;;;;;;5036889;28;37682;-74
2020/12/07 04:20:43;;;;;;;74.30;40.23;;;5.50;99.90;;;;;;5035438;28;38835;-74
2020/12/07 04:23:10;;;;;;;67.27;35.80;;;5.50;99.90;;;;;;5022513;28;38654;-74
2020/12/07 04:25:36;;;;;;;71.77;38.97;;;5.50;99.90;;;;;;5032417;28;37419;-75
2020/12/07 04:28:03;;;;;;;76.90;39.00;;;5.50;99.90;;;;;;5025065;28;39779;-74
2020/12/07 04:30:29;;;;;;;65.93;37.63;;;5.50;99.90;;;;;;5020316;28;38435;-74
2020/12/07 04:32:55;;;;;;;70.03;37.30;;;5.50;99.90;;;;;;5011529;28;38544;-74
2020/12/07 04:35:21;;;;;;;67.50;37.07;;;5.50;99.90;;;;;;5015145;28;38149;-74
2020/12/07 04:37:47;;;;;;;54.33;32.00;;;5.50;99.90;;;;;;5019086;28;39789;-74
2020/12/07 04:40:13;;;;;;;54.30;31.37;;;5.50;99.90;;;;;;5017414;28;38144;-74
2020/12/07 04:42:41;;;;;;;56.53;32.97;;;5.50;99.90;;;;;;5004638;28;38531;-74
2020/12/07 04:45:09;;;;;;;42.53;26.23;;;5.50;99.90;;;;;;5049998;28;37377;-74
2020/12/07 04:47:38;;;;;;;52.90;31.67;;;5.50;99.90;;;;;;5034041;28;37915;-74
2020/12/07 04:50:06;;;;;;;53.77;31.53;;;5.50;99.90;;;;;;5021028;28;38328;-74
2020/12/07 04:52:33;;;;;;;53.53;31.03;;;5.50;99.90;;;;;;5026366;28;37985;-74
2020/12/07 04:55:04;;;;;;;40.87;26.40;;;5.50;99.90;;;;;;5018872;28;37186;-75
2020/12/07 04:57:31;;;;;;;48.33;29.17;;;5.50;99.90;;;;;;5025367;28;47292;-75
2020/12/07 04:59:58;;;;;;;55.00;30.80;;;5.50;99.90;;;;;;5017260;28;39022;-75
2020/12/07 05:02:27;;;;;;;52.37;30.50;;;5.50;99.90;;;;;;5014839;28;34905;-75
2020/12/07 05:04:54;;;;;;;52.90;30.33;;;5.50;99.90;;;;;;5043979;28;36406;-75
2020/12/07 05:07:21;;;;;;;40.80;24.80;;;5.50;99.90;;;;;;5014947;28;39540;-75
2020/12/07 05:09:47;;;;;;;44.73;27.63;;;5.50;99.90;;;;;;5023808;28;38333;-75
2020/12/07 05:12:20;;;;;;;44.20;26.00;;;5.50;99.90;;;;;;5039935;28;38392;-75
2020/12/07 05:14:47;;;;;;;40.50;24.10;;;5.50;99.90;;;;;;5023685;28;36720;-75
2020/12/07 05:17:16;;;;;;;51.60;30.70;;;5.50;99.90;;;;;;5027947;28;39569;-75
2020/12/07 05:19:45;;;;;;;41.43;25.47;;;5.50;99.90;;;;;;5021909;28;39543;-75
2020/12/07 05:22:15;;;;;;;32.60;21.73;;;5.50;99.90;;;;;;5042344;28;37456;-75
2020/12/07 05:24:51;;;;;;;38.10;24.57;;;5.50;99.90;;;;;;5022851;28;38493;-74
2020/12/07 05:27:18;;;;;;;31.63;20.43;;;5.50;99.90;;;;;;5025061;28;39905;-75
2020/12/07 05:32:43;;;;;;;47.20;26.20;;;5.50;99.90;;;;;;4976472;28;49807;-75
2020/12/07 05:35:10;;;;;;;38.33;24.70;;;5.50;99.90;;;;;;5021544;28;38169;-75
2020/12/07 05:37:37;;;;;;;55.57;31.17;;;5.50;99.90;;;;;;5021004;28;40746;-75
2020/12/07 05:40:14;;;;;;;43.73;27.50;;;5.50;99.90;;;;;;5019587;28;39037;-75
2020/12/07 05:42:43;;;;;;;39.87;25.57;;;5.50;99.90;;;;;;5040743;28;37528;-75
2020/12/07 05:45:11;;;;;;;42.23;26.90;;;5.50;99.90;;;;;;5057571;28;36695;-75
2020/12/07 05:47:39;;;;;;;51.97;28.37;;;5.50;99.90;;;;;;5020546;28;37831;-75
2020/12/07 05:50:07;;;;;;;51.57;29.93;;;5.50;99.90;;;;;;5021372;28;39236;-75
2020/12/07 05:52:54;;;;;;;53.73;29.80;;;5.50;99.90;;;;;;5045000;28;35736;-75
2020/12/07 05:55:21;;;;;;;61.20;31.93;;;5.50;99.90;;;;;;5017445;28;38219;-75
2020/12/07 05:58:10;;;;;;;33.33;23.07;;;5.40;99.90;;;;;;5037549;28;38339;-75
2020/12/07 06:00:38;;;;;;;35.27;23.07;;;5.40;99.90;;;;;;5020351;28;49111;-75
2020/12/07 06:03:07;;;;;;;39.87;24.77;;;5.40;99.90;;;;;;5019629;28;37997;-75
2020/12/07 06:05:33;;;;;;;52.80;27.13;;;5.40;99.90;;;;;;5019545;28;38072;-74
2020/12/07 06:08:13;;;;;;;36.27;21.67;;;5.40;99.90;;;;;;5021695;28;39389;-74
2020/12/07 06:10:56;;;;;;;34.43;21.13;;;5.40;99.90;;;;;;5024443;28;48669;-76
2020/12/07 06:13:26;;;;;;;37.95;20.70;;;5.40;99.90;;;;;;5016967;28;38063;-76
2020/12/07 06:15:54;;;;;;;36.30;20.40;;;5.30;99.90;;;;;;5024894;28;37282;-75
2020/12/07 06:18:32;;;;;;;28.13;16.50;;;5.30;99.90;;;;;;5017122;28;37772;-75
2020/12/07 06:21:04;;;;;;;28.57;17.03;;;5.30;99.90;;;;;;5020103;28;39140;-75
2020/12/07 06:23:33;;;;;;;26.77;15.52;;;5.30;99.90;;;;;;4999897;28;47366;-75
2020/12/07 06:26:00;;;;;;;26.27;16.27;;;5.30;99.90;;;;;;5002883;28;36677;-75
2020/12/07 06:28:31;;;;;;;22.60;13.23;;;5.30;99.90;;;;;;5010007;28;38207;-76
2020/12/07 06:31:05;;;;;;;22.13;15.03;;;5.30;99.90;;;;;;5018278;28;39047;-75
2020/12/07 06:33:42;;;;;;;25.53;16.73;;;5.30;99.90;;;;;;5028427;28;47481;-75
2020/12/07 06:36:34;;;;;;;27.73;16.10;;;5.40;99.90;;;;;;5036750;28;36057;-75
2020/12/07 06:39:06;;;;;;;32.67;18.48;;;5.40;99.90;;;;;;5026819;28;38098;-75
2020/12/07 06:41:42;;;;;;;40.03;19.33;;;5.50;99.90;;;;;;5035664;28;47421;-77
2020/12/07 06:44:13;;;;;;;35.47;19.10;;;5.40;99.90;;;;;;5023553;28;38748;-75
2020/12/07 06:47:02;;;;;;;35.30;20.07;;;5.50;99.90;;;;;;5039266;28;37856;-75
2020/12/07 06:49:35;;;;;;;24.73;16.07;;;5.50;99.90;;;;;;5011686;28;48290;-76
2020/12/07 06:52:10;;;;;;;32.97;21.40;;;5.50;99.90;;;;;;5035942;28;38217;-75
2020/12/07 06:55:10;;;;;;;38.60;19.37;;;5.50;99.90;;;;;;5045584;28;37376;-76
2020/12/07 06:57:36;;;;;;;25.97;18.43;;;5.60;99.90;;;;;;5019414;28;47303;-75
2020/12/07 07:00:11;;;;;;;25.77;16.93;;;5.60;99.90;;;;;;5042644;28;38572;-75
2020/12/07 07:02:43;;;;;;;20.53;14.27;;;5.60;99.90;;;;;;5044287;28;37706;-75
2020/12/07 07:05:10;;;;;;;22.53;14.00;;;5.60;99.90;;;;;;5024985;28;38226;-75
2020/12/07 07:07:37;;;;;;;22.00;14.33;;;5.50;99.90;;;;;;5027793;28;37503;-75
2020/12/07 07:10:04;;;;;;;18.13;12.70;;;5.50;99.90;;;;;;5048572;28;39213;-75
2020/12/07 07:12:30;;;;;;;18.47;12.57;;;5.50;99.90;;;;;;5036993;28;39108;-75
2020/12/07 07:14:57;;;;;;;19.63;13.43;;;5.50;99.90;;;;;;5025536;28;38233;-75
2020/12/07 07:17:25;;;;;;;21.67;14.67;;;5.50;99.90;;;;;;5025776;28;37858;-76
2020/12/07 07:19:51;;;;;;;19.77;13.00;;;5.50;99.90;;;;;;5017870;28;38728;-76
2020/12/07 07:22:18;;;;;;;19.23;14.37;;;5.50;99.90;;;;;;5018751;28;38159;-75
2020/12/07 07:24:57;;;;;;;23.10;14.97;;;5.50;99.90;;;;;;5018268;28;38209;-76
2020/12/07 07:30:14;;;;;;;26.47;17.53;;;5.50;99.90;;;;;;5028111;28;40446;-76
2020/12/07 07:32:45;;;;;;;25.37;17.73;;;5.50;99.90;;;;;;5022010;28;38085;-75
2020/12/07 07:35:12;;;;;;;31.50;19.33;;;5.50;99.90;;;;;;5040549;28;36957;-75
2020/12/07 07:37:40;;;;;;;22.50;14.70;;;5.50;99.90;;;;;;5026006;28;37202;-75
2020/12/07 07:40:17;;;;;;;21.40;15.33;;;5.50;99.90;;;;;;5023832;28;38011;-75
2020/12/07 07:42:49;;;;;;;20.83;13.80;;;5.50;99.90;;;;;;5035151;28;38801;-76
2020/12/07 07:45:20;;;;;;;17.17;12.57;;;5.50;99.90;;;;;;5037570;28;37206;-76
2020/12/07 07:50:38;;;;;;;16.83;10.63;;;5.50;99.90;;;;;;5021877;28;40231;-75
2020/12/07 08:17:17;;;;;;;5.60;4.77;;;5.70;99.90;;;;;;5014717;28;39580;-75
2020/12/07 08:19:46;;;;;;;7.10;5.20;;;5.60;99.90;;;;;;5023391;28;37086;-75
2020/12/07 08:22:14;;;;;;;8.60;6.00;;;5.60;99.90;;;;;;5015091;28;38813;-75
2020/12/07 08:24:52;;;;;;;10.90;7.53;;;5.60;99.90;;;;;;5019235;28;39071;-75
2020/12/07 08:27:18;;;;;;;14.13;7.90;;;5.60;99.90;;;;;;5013539;28;38745;-75
2020/12/07 08:29:44;;;;;;;11.10;6.70;;;5.60;99.90;;;;;;5011112;28;37744;-74
2020/12/07 08:32:25;;;;;;;10.60;6.47;;;5.60;99.90;;;;;;5041007;28;37743;-75
2020/12/07 08:34:51;;;;;;;10.03;8.73;;;5.60;99.90;;;;;;5043701;28;37773;-74
2020/12/07 08:37:17;;;;;;;14.67;10.13;;;5.60;99.90;;;;;;5058359;28;38161;-74
2020/12/07 08:39:43;;;;;;;22.30;15.03;;;5.60;99.90;;;;;;5029766;28;37076;-75
2020/12/07 08:42:10;;;;;;;22.67;17.30;;;5.60;99.90;;;;;;5041112;28;38214;-75
2020/12/07 08:44:37;;;;;;;25.07;18.00;;;5.50;99.90;;;;;;5028999;28;38895;-75
2020/12/07 08:47:09;;;;;;;28.93;20.37;;;5.50;99.90;;;;;;5028954;28;38811;-74
2020/12/07 08:49:36;;;;;;;35.83;23.17;;;5.50;99.90;;;;;;5030707;28;37081;-75
2020/12/07 08:52:03;;;;;;;37.53;27.80;;;5.50;99.90;;;;;;5029425;28;38189;-75
2020/12/07 08:54:29;;;;;;;44.60;31.00;;;5.50;99.90;;;;;;5024632;28;36859;-78
2020/12/07 08:56:55;;;;;;;55.00;33.70;;;5.50;99.90;;;;;;5038251;28;36960;-78
2020/12/07 08:59:21;;;;;;;47.53;33.23;;;5.50;99.90;;;;;;5006864;28;37725;-77
2020/12/07 09:01:47;;;;;;;54.00;35.77;;;5.50;99.90;;;;;;5018375;28;38356;-78
2020/12/07 09:04:13;;;;;;;67.37;41.77;;;5.50;99.90;;;;;;5026961;28;38289;-77
2020/12/07 09:06:40;;;;;;;48.80;33.13;;;5.50;99.90;;;;;;5012705;28;38387;-77
2020/12/07 09:09:09;;;;;;;50.73;34.70;;;5.50;99.90;;;;;;5010613;28;36633;-77
2020/12/07 09:11:35;;;;;;;42.60;30.90;;;5.50;99.90;;;;;;5049984;28;39899;-76
2020/12/07 09:14:02;;;;;;;52.03;34.20;;;5.50;99.90;;;;;;5026766;28;38756;-77
2020/12/07 09:16:28;;;;;;;55.90;37.47;;;5.50;99.90;;;;;;5012016;28;48288;-76
2020/12/07 09:18:54;;;;;;;71.80;43.77;;;5.40;99.90;;;;;;5023354;28;36910;-76
2020/12/07 09:21:20;;;;;;;64.20;41.10;;;5.40;99.90;;;;;;5019568;28;38674;-76
2020/12/07 09:23:46;;;;;;;72.93;44.10;;;5.40;99.90;;;;;;5005585;28;37906;-77
2020/12/07 09:26:12;;;;;;;69.37;41.57;;;5.30;99.90;;;;;;5019476;28;37369;-76
2020/12/07 09:28:39;;;;;;;67.47;43.40;;;5.30;99.90;;;;;;5020664;28;37490;-76
2020/12/07 09:31:06;;;;;;;68.27;44.27;;;5.30;99.90;;;;;;5003776;28;37543;-77
2020/12/07 09:33:33;;;;;;;67.67;44.07;;;5.20;99.90;;;;;;5023942;28;38499;-76
2020/12/07 09:35:59;;;;;;;62.57;40.27;;;5.30;99.90;;;;;;5021656;28;36798;-76
2020/12/07 09:38:25;;;;;;;58.50;39.67;;;5.30;99.90;;;;;;5024276;28;37617;-75
2020/12/07 09:40:51;;;;;;;61.90;40.80;;;5.30;99.90;;;;;;5011783;28;38995;-75
2020/12/07 09:43:18;;;;;;;67.80;44.13;;;5.30;99.90;;;;;;5001606;28;37399;-76
2020/12/07 09:45:44;;;;;;;70.17;46.37;;;5.30;99.90;;;;;;5021745;28;38863;-76
2020/12/07 09:48:10;;;;;;;77.80;47.60;;;5.30;99.90;;;;;;5020402;28;37171;-75
2020/12/07 09:50:36;;;;;;;71.13;47.10;;;5.20;99.90;;;;;;5023215;28;38262;-75
2020/12/07 09:53:07;;;;;;;66.27;44.47;;;5.20;99.90;;;;;;5040206;28;37939;-76
2020/12/07 09:55:34;;;;;;;66.30;44.93;;;5.20;99.90;;;;;;5014147;28;38298;-76
2020/12/07 09:58:00;;;;;;;82.27;50.67;;;5.20;99.90;;;;;;5033539;28;37259;-76
2020/12/07 10:00:26;;;;;;;68.17;44.63;;;5.20;99.90;;;;;;5000884;28;38899;-75
2020/12/07 10:02:52;;;;;;;72.20;46.60;;;5.20;99.90;;;;;;5003891;28;38554;-76
2020/12/07 10:05:18;;;;;;;63.13;42.43;;;5.20;99.90;;;;;;5002847;28;38665;-75
2020/12/07 10:07:45;;;;;;;66.03;43.00;;;5.20;99.90;;;;;;5021949;28;36530;-76
2020/12/07 10:10:11;;;;;;;66.03;44.60;;;5.30;99.90;;;;;;5017997;28;38473;-76
2020/12/07 10:12:37;;;;;;;64.83;41.97;;;5.30;99.90;;;;;;5019292;28;37232;-76
2020/12/07 10:15:03;;;;;;;75.23;47.37;;;5.30;99.90;;;;;;5003800;28;37887;-75
2020/12/07 10:17:29;;;;;;;67.70;42.90;;;5.30;99.90;;;;;;5014815;28;37447;-76
2020/12/07 10:19:55;;;;;;;64.30;43.17;;;5.30;99.90;;;;;;5023231;28;37426;-75
2020/12/07 10:22:21;;;;;;;67.13;43.00;;;5.30;99.90;;;;;;5029139;28;38982;-76
2020/12/07 10:24:48;;;;;;;63.53;41.53;;;5.30;99.90;;;;;;5036028;28;38653;-75
2020/12/07 10:27:14;;;;;;;62.20;41.03;;;5.30;99.90;;;;;;5027846;28;36260;-76
2020/12/07 10:29:41;;;;;;;65.33;41.57;;;5.30;99.90;;;;;;5028904;28;38820;-75
2020/12/07 10:32:07;;;;;;;69.00;44.33;;;5.20;99.90;;;;;;5023527;28;38328;-76
2020/12/07 10:34:33;;;;;;;72.30;45.07;;;5.20;99.90;;;;;;5027511;28;37426;-75
2020/12/07 10:36:59;;;;;;;73.83;44.70;;;5.20;99.90;;;;;;5029027;28;37986;-76
2020/12/07 10:39:25;;;;;;;70.13;42.13;;;5.20;99.90;;;;;;5040437;28;38866;-76
2020/12/07 10:41:52;;;;;;;75.93;45.37;;;5.20;99.90;;;;;;5017988;28;39092;-75
2020/12/07 10:44:18;;;;;;;99.47;52.60;;;5.20;99.90;;;;;;5039349;28;37003;-76
2020/12/07 10:46:48;;;;;;;78.87;47.03;;;5.20;99.90;;;;;;5044768;28;37361;-76
2020/12/07 10:49:14;;;;;;;86.23;50.80;;;5.10;99.90;;;;;;5027481;28;38955;-76
2020/12/07 10:51:40;;;;;;;84.07;48.07;;;5.10;99.90;;;;;;5027816;28;38837;-76
2020/12/07 10:54:06;;;;;;;88.17;50.33;;;5.10;99.90;;;;;;5025564;28;37438;-76
2020/12/07 10:56:32;;;;;;;81.93;47.93;;;5.10;99.90;;;;;;5027063;28;37271;-75
2020/12/07 10:58:59;;;;;;;88.43;50.50;;;5.10;99.90;;;;;;5026969;28;38543;-75
2020/12/07 11:01:25;;;;;;;82.53;48.60;;;5.10;99.90;;;;;;5025221;28;38430;-76
2020/12/07 11:03:51;;;;;;;85.43;50.53;;;5.10;99.90;;;;;;5025807;28;38042;-75
2020/12/07 11:06:27;;;;;;;76.67;47.63;;;5.20;99.90;;;;;;5023823;28;36853;-76
2020/12/07 11:08:56;;;;;;;70.40;44.57;;;5.20;99.90;;;;;;5020544;28;39568;-76
2020/12/07 11:11:23;;;;;;;73.60;43.87;;;5.30;99.90;;;;;;5024584;28;38542;-76
2020/12/07 11:13:49;;;;;;;67.00;42.67;;;5.30;99.90;;;;;;5022468;28;37888;-76
2020/12/07 11:16:19;;;;;;;66.40;43.13;;;5.30;99.90;;;;;;5024246;28;36769;-76
2020/12/07 11:18:45;;;;;;;75.77;46.10;;;5.20;99.90;;;;;;5033209;28;38771;-77
2020/12/07 11:21:15;;;;;;;70.63;43.63;;;5.20;99.90;;;;;;5009680;28;38158;-76
2020/12/07 11:23:43;;;;;;;81.73;48.00;;;5.20;99.90;;;;;;5021729;28;37846;-76
2020/12/07 11:26:11;;;;;;;81.30;45.77;;;5.20;99.90;;;;;;5017818;28;36757;-77
2020/12/07 11:28:38;;;;;;;72.63;44.90;;;5.20;99.90;;;;;;5024789;28;39030;-76
2020/12/07 11:31:12;;;;;;;84.37;49.70;;;5.30;99.90;;;;;;5024835;28;37731;-76
2020/12/07 11:33:39;;;;;;;85.50;49.07;;;5.20;99.90;;;;;;5038093;28;37915;-76
2020/12/07 11:36:05;;;;;;;89.67;52.00;;;5.20;99.90;;;;;;5027049;28;37088;-77
2020/12/07 11:41:36;;;;;;;108.43;58.03;;;5.30;99.90;;;;;;5018377;28;38530;-76
2020/12/07 11:44:10;;;;;;;93.53;53.57;;;5.30;99.90;;;;;;5026561;28;37014;-76
2020/12/07 11:46:47;;;;;;;102.30;56.30;;;5.40;99.90;;;;;;5038215;28;36535;-76
2020/12/07 11:49:13;;;;;;;115.87;59.30;;;5.50;99.90;;;;;;5036921;28;38097;-76
2020/12/07 11:51:40;;;;;;;117.97;60.60;;;5.40;99.90;;;;;;5025476;28;39067;-76
2020/12/07 11:54:06;;;;;;;110.50;59.63;;;5.30;99.90;;;;;;5040167;28;37333;-76
2020/12/07 11:56:35;;;;;;;115.70;60.87;;;5.40;99.90;;;;;;5027914;28;36419;-76
2020/12/07 11:59:01;;;;;;;103.80;55.23;;;5.40;99.90;;;;;;5028146;28;39795;-75
2020/12/07 12:01:33;;;;;;;112.40;59.47;;;5.40;99.90;;;;;;5022147;28;37476;-76
2020/12/07 12:04:00;;;;;;;114.10;60.53;;;5.30;99.90;;;;;;5059235;28;37441;-76
2020/12/07 12:06:31;;;;;;;110.67;59.90;;;5.20;99.90;;;;;;5041064;28;35652;-76
2020/12/07 12:08:58;;;;;;;114.93;60.73;;;5.30;99.90;;;;;;5027592;28;37979;-77
2020/12/07 12:11:34;;;;;;;112.73;59.47;;;5.20;99.90;;;;;;5025451;28;38890;-76
2020/12/07 12:14:03;;;;;;;116.87;60.47;;;5.30;99.90;;;;;;5027620;28;38219;-76
2020/12/07 12:16:29;;;;;;;111.73;58.87;;;5.30;99.90;;;;;;5023756;28;49002;-75
2020/12/07 12:18:55;;;;;;;106.20;58.97;;;5.20;99.90;;;;;;5027926;28;39730;-76
2020/12/07 12:21:23;;;;;;;129.50;63.83;;;5.20;99.90;;;;;;5042793;28;37921;-75
2020/12/07 12:23:49;;;;;;;120.70;66.43;;;5.20;99.90;;;;;;5034770;28;36942;-76
2020/12/07 12:26:17;;;;;;;116.77;60.40;;;5.10;99.90;;;;;;5023530;28;37120;-75
2020/12/07 12:28:43;;;;;;;112.83;61.70;;;5.10;99.90;;;;;;5027251;28;39946;-75
2020/12/07 12:31:10;;;;;;;111.17;60.83;;;5.20;99.90;;;;;;5017438;28;38570;-75
2020/12/07 12:33:37;;;;;;;104.47;59.57;;;5.20;99.90;;;;;;5026074;28;38083;-75
2020/12/07 12:36:04;;;;;;;114.50;61.33;;;5.20;99.90;;;;;;5021321;28;37419;-75
2020/12/07 12:38:30;;;;;;;105.67;57.97;;;5.10;99.90;;;;;;5022914;28;37876;-74
2020/12/07 12:40:56;;;;;;;118.87;62.30;;;5.00;99.90;;;;;;5017994;28;37761;-75
2020/12/07 12:43:22;;;;;;;114.73;61.60;;;5.00;99.90;;;;;;5036379;28;37060;-76
2020/12/07 12:45:48;;;;;;;117.93;64.37;;;5.00;99.90;;;;;;5026309;28;37535;-75
2020/12/07 12:48:14;;;;;;;110.40;59.77;;;5.00;99.90;;;;;;5041638;28;37782;-75
2020/12/07 12:50:41;;;;;;;124.60;66.53;;;5.00;99.90;;;;;;5033325;28;37517;-75
2020/12/07 12:53:07;;;;;;;113.93;60.43;;;5.00;99.90;;;;;;5023624;28;38046;-75
2020/12/07 12:55:33;;;;;;;121.63;61.60;;;4.90;99.90;;;;;;5021050;28;37359;-75
2020/12/07 12:57:59;;;;;;;122.13;63.67;;;4.80;99.90;;;;;;5036550;28;37497;-75
2020/12/07 13:00:25;;;;;;;133.87;66.27;;;4.80;99.90;;;;;;5018988;28;38220;-75
2020/12/07 13:02:51;;;;;;;122.83;65.10;;;4.80;99.90;;;;;;5024381;28;37877;-75
2020/12/07 13:05:17;;;;;;;134.67;67.67;;;4.80;99.90;;;;;;5038963;28;39319;-75
2020/12/07 13:07:43;;;;;;;122.77;64.57;;;4.90;99.90;;;;;;5025058;28;37734;-75
2020/12/07 13:10:10;;;;;;;116.37;62.37;;;4.90;99.90;;;;;;5005589;28;38535;-75
2020/12/07 13:12:36;;;;;;;107.07;57.50;;;5.10;99.90;;;;;;5007799;28;37560;-75
2020/12/07 13:15:03;;;;;;;114.30;59.93;;;5.10;99.90;;;;;;5022328;28;37317;-74